Kure Beach, NC (28449)

2:38 AM EST on January 31, 2015 (GMT -0500)
Darlings By The Sea | Change Station
CLOSE
Current Station
Personal Weather Station
Location: Kure Beach, NC
Elevation: 16 ft
Nearby Weather Stations

Elev 16 ft 34.00 °N, 77.90 °W | Updated 1 second ago

Clear
Clear
34.0 °F
Feels Like 25 °F
N
14.0
Wind Variable Wind from NNW
Gusts 18.0 mph

Today
High -- | Low -- °F
--% Chance of Precip.
Yesterday
High -- | Low -- °F
Precip. -- in
7:09 AM 5:41 PM
Waxing Gibbous, 88% visible
Pressure 30.30 in
Visibility 10.0 miles
Clouds Clear
Windchill 25 °F
Dew Point 15 °F
Humidity 45%
Rainfall 0.00 in
Snow Depth Not available.
UV 0 out of 12
Pollen 2.20 out of 12
Air Quality Not available.
Flu Activity Not available.
METAR KSUT 310715Z AUTO 35006KT 10SM CLR 01/M11 A3030 RMK AO2 T00071110

More Conditions Fewer Conditions

Pressure 30.30 in
Visibility 10.0 miles
Clouds Clear
Windchill 25 °F
Dew Point 15 °F
Humidity 45%
Rainfall 0.00 in
Snow Depth Not available.
UV 0 out of 12
Pollen 2.20 out of 12
Air Quality Not available.
Flu Activity Not available.
METAR KSUT 310715Z AUTO 35006KT 10SM CLR 01/M11 A3030 RMK AO2 T00071110

More Conditions Fewer Conditions

10-Day Weather Forecast

Almanac

Astronomy

Jan. 31, 2015 Rise Set
Actual Time
Civil Twilight
Nautical Twilight
Astronomical Twilight
Moon
Length of Visible Light
Length of Day
Tomorrow will be .
, % of the Moon is Illuminated

Today's Extremes

State Highs State Lows

Community

WunderPhotos

Upload Photos

1,792,014 photos uploaded!

WunderBlogs® & News

Nearby

Air Quality

  Air Quality AQ Index Pollutant
Not available.

Snow Depth

Station Depth Elevation

Earthquake Activity

City Distance Mag. Time & Date
Minimum magnitude displayed is 2.5.

Coastal Water Temperatures

Place Temperature

Nearby Weather Stations